Airfield :
LOGIN :

Register | Disclaimer

   EN    FR    IT 

 










Legend :    VFR   Marginal VFR   IFR   Intensive IFR   Very Intensive IFR
Visi :
Ceiling :
>= 8 km
>= 3000ft
5 to 8 km
1000 to 3000 ft
1500m to 5 km
500 to 1000 ft
800 to 1500m
200 to 500 ft
< 800m
< 200 ft
Symbols :   Thunderstorms  Fog  Heavy snow  Heavy precipitations  Wind > 20 kt
SIGMETs :     Misc.  Thunderstorms  Icing  Turbulence  Mountain Waves  Volcanic Ashes







- Airport Elevation : 913 ft
- Download approach charts


LFSX - Luxeuil

CURRENT METAR :
  • 250830Z AUTO 25012KT 220V280 9999 BKN028/// BKN034/// 16/11 Q1017 TEMPO BKN030TCU

EXPIRED METARs :
  • 250800Z AUTO 25011KT 220V280 9999 BKN022/// BKN029/// 16/12 Q1017
  • 250730Z AUTO 23009KT 200V270 9999 BKN025/// 15/12 Q1017 NOSIG
  • 250700Z AUTO VRB03KT 9999 SCT026/// 15/12 Q1016 NOSIG
  • 250630Z AUTO 07003KT 9999 OVC027/// 13/11 Q1016 BECMG 25012KT
  • 250600Z AUTO 09003KT 9999 SCT030/// OVC041/// 12/11 Q1016 BECMG 25012KT

TAF TAF LFSX
Valid from the 25 at 09:00 until the 26 at 09:00 UTC


250800Z 2509/2609 25012KT 9999 SCT035
TEMPO 2510/2521 BKN030TCU
No reported NOTAMs for that airfield.



MET'MAP, your aeronautical weather chart ! - Copyright ORBIFLY December 2007 - Disclaimer

ORBIFLY MET'MAP TEAM :

Programming & Development : Alexandra Zaïnal
Concept & Development : Baudouin d'Aumeries
Co-Development & Prog : Marc-Olivier Méhu
Technical & hardware support : Manuel Goepfert

Contact : metmap@orbifly.com




SOURCES & CREDITS :

   NOAA